createdAt,value
2022-11-12T00:00:12.694Z,3.60
2022-11-12T00:02:58.893Z,3.30
2022-11-12T00:05:44.736Z,3.78
2022-11-12T00:08:30.476Z,5.22
2022-11-12T00:11:16.417Z,4.70
2022-11-12T00:14:01.265Z,4.85
2022-11-12T00:16:46.632Z,3.92
2022-11-12T00:19:31.885Z,4.30
2022-11-12T00:22:17.339Z,4.38
2022-11-12T00:25:03.686Z,3.85
2022-11-12T00:27:48.858Z,5.32
2022-11-12T00:30:36.646Z,5.15
2022-11-12T00:33:22.074Z,4.10
2022-11-12T00:36:08.127Z,4.50
2022-11-12T00:38:53.505Z,5.03
2022-11-12T00:41:38.835Z,5.47
2022-11-12T00:44:24.391Z,6.00
2022-11-12T00:47:09.687Z,7.10
2022-11-12T00:49:55.066Z,5.57
2022-11-12T00:52:40.682Z,6.03
2022-11-12T00:55:26.061Z,6.40
2022-11-12T00:58:11.646Z,5.00
2022-11-12T01:00:57.305Z,5.70
2022-11-12T01:03:43.706Z,5.10
2022-11-12T01:06:29.407Z,5.50
2022-11-12T01:09:14.765Z,4.97
2022-11-12T01:12:00.123Z,4.53
2022-11-12T01:14:45.610Z,4.65
2022-11-12T01:17:31.974Z,4.70
2022-11-12T01:20:17.459Z,4.90
2022-11-12T01:23:02.715Z,4.47
2022-11-12T01:25:49.053Z,4.40
2022-11-12T01:28:35.247Z,4.40
2022-11-12T01:31:24.848Z,4.30
2022-11-12T01:34:10.574Z,3.65
2022-11-12T01:36:55.996Z,3.60
2022-11-12T01:39:41.261Z,3.55
2022-11-12T01:42:30.411Z,3.55
2022-11-12T01:45:16.056Z,3.80
2022-11-12T01:48:02.844Z,3.60
2022-11-12T01:50:48.206Z,4.15
2022-11-12T01:53:42.284Z,4.70
2022-11-12T01:56:31.321Z,3.97
2022-11-12T01:59:33.654Z,4.03
2022-11-12T02:02:19.078Z,3.58
2022-11-12T02:05:08.569Z,3.22
2022-11-12T02:07:54.886Z,3.72
2022-11-12T02:10:40.995Z,3.38
2022-11-12T02:13:44.832Z,5.75
2022-11-12T02:16:41.210Z,4.53
2022-11-12T02:19:26.950Z,4.22
2022-11-12T02:22:12.630Z,3.30
2022-11-12T02:24:57.922Z,2.42
2022-11-12T02:27:44.528Z,3.63
2022-11-12T02:30:36.595Z,4.03
2022-11-12T02:33:21.718Z,4.05
2022-11-12T02:36:07.075Z,4.00
2022-11-12T02:38:52.797Z,3.63
2022-11-12T02:41:40.959Z,3.90
2022-11-12T02:44:26.809Z,3.55
2022-11-12T02:47:12.645Z,3.97
2022-11-12T02:49:57.977Z,3.15
2022-11-12T02:52:43.607Z,3.17
2022-11-12T02:55:29.389Z,3.42
2022-11-12T02:58:14.983Z,4.20
2022-11-12T03:01:00.751Z,3.35
2022-11-12T03:03:45.989Z,2.72
2022-11-12T03:06:31.319Z,2.78
2022-11-12T03:09:16.651Z,3.30
2022-11-12T03:12:01.934Z,3.17
2022-11-12T03:14:47.400Z,3.10
2022-11-12T03:17:34.820Z,3.53
2022-11-12T03:20:20.659Z,3.22
2022-11-12T03:23:08.676Z,3.08
2022-11-12T03:25:54.096Z,2.60
2022-11-12T03:28:39.184Z,3.65
2022-11-12T03:31:24.789Z,3.85
2022-11-12T03:34:11.880Z,3.60
2022-11-12T03:36:57.204Z,2.67
2022-11-12T03:39:42.658Z,3.22
2022-11-12T03:42:27.939Z,2.92
2022-11-12T03:45:13.402Z,3.17
2022-11-12T03:47:59.030Z,3.20
2022-11-12T03:50:44.515Z,3.17
2022-11-12T03:53:29.694Z,2.80
2022-11-12T03:56:14.994Z,3.38
2022-11-12T03:59:00.299Z,3.80
2022-11-12T04:01:45.621Z,3.60
2022-11-12T04:04:50.915Z,3.05
2022-11-12T04:07:55.010Z,3.15
2022-11-12T04:10:40.547Z,3.25
2022-11-12T04:13:29.205Z,2.90
2022-11-12T04:16:38.445Z,3.10
2022-11-12T04:19:42.296Z,3.53
2022-11-12T04:22:27.483Z,3.10
2022-11-12T04:25:41.868Z,3.38
2022-11-12T04:31:13.057Z,4.70
2022-11-12T04:34:18.505Z,3.97
2022-11-12T04:37:05.564Z,3.45
2022-11-12T04:39:51.950Z,3.65
2022-11-12T04:42:56.193Z,3.70
2022-11-12T04:45:43.880Z,3.00
2022-11-12T04:48:30.126Z,3.17
2022-11-12T04:51:34.642Z,1.92
2022-11-12T04:54:19.680Z,3.55
2022-11-12T04:57:05.025Z,3.47
2022-11-12T04:59:50.549Z,3.38
2022-11-12T05:02:36.439Z,3.75
2022-11-12T05:05:21.780Z,3.35
2022-11-12T05:08:07.209Z,3.47
2022-11-12T05:10:52.404Z,3.70
2022-11-12T05:13:37.895Z,3.22
2022-11-12T05:16:23.068Z,3.85
2022-11-12T05:19:08.510Z,4.30
2022-11-12T05:22:06.354Z,3.75
2022-11-12T05:24:52.284Z,3.20
2022-11-12T05:27:37.994Z,3.25
2022-11-12T05:30:23.393Z,3.47
2022-11-12T05:33:08.964Z,3.67
2022-11-12T05:35:56.763Z,3.50
2022-11-12T05:38:42.201Z,3.22
2022-11-12T05:41:32.862Z,2.72
2022-11-12T05:44:30.754Z,3.83
2022-11-12T05:47:16.736Z,3.45
2022-11-12T05:50:02.177Z,2.58
2022-11-12T05:52:47.652Z,3.17
2022-11-12T05:55:37.097Z,2.88
2022-11-12T05:58:22.539Z,3.55
2022-11-12T06:01:08.200Z,2.75
2022-11-12T06:03:53.499Z,2.33
2022-11-12T06:06:39.686Z,3.17
2022-11-12T06:09:25.177Z,2.75
2022-11-12T06:12:10.467Z,3.08
2022-11-12T06:14:55.792Z,3.40
2022-11-12T06:17:42.581Z,3.00
2022-11-12T06:20:28.119Z,2.80
2022-11-12T06:23:13.455Z,2.20
2022-11-12T06:25:58.995Z,2.55
2022-11-12T06:28:44.780Z,3.30
2022-11-12T06:31:30.632Z,3.00
2022-11-12T06:34:16.010Z,2.70
2022-11-12T06:37:01.105Z,3.45
2022-11-12T06:39:46.549Z,4.43
2022-11-12T06:42:31.810Z,4.18
2022-11-12T06:45:17.242Z,5.30
2022-11-12T06:48:02.573Z,4.97
2022-11-12T06:50:48.003Z,5.28
2022-11-12T06:53:33.457Z,6.05
2022-11-12T06:56:19.998Z,5.50
2022-11-12T06:59:05.358Z,5.75
2022-11-12T07:01:50.947Z,3.97
2022-11-12T07:04:36.630Z,4.30
2022-11-12T07:07:22.016Z,5.45
2022-11-12T07:10:07.902Z,5.57
2022-11-12T07:12:54.209Z,4.40
2022-11-12T07:15:39.577Z,4.80
2022-11-12T07:18:25.108Z,3.88
2022-11-12T07:21:14.373Z,4.32
2022-11-12T07:23:59.772Z,5.03
2022-11-12T07:26:47.615Z,4.10
2022-11-12T07:29:47.043Z,4.30
2022-11-12T07:32:36.196Z,3.40
2022-11-12T07:35:24.174Z,3.47
2022-11-12T07:38:09.484Z,4.20
2022-11-12T07:41:03.104Z,4.28
2022-11-12T07:43:49.549Z,3.30
2022-11-12T07:46:34.889Z,5.40
2022-11-12T07:49:20.338Z,4.07
2022-11-12T07:52:05.740Z,3.85
2022-11-12T07:54:51.375Z,3.60
2022-11-12T07:57:36.664Z,4.10
2022-11-12T08:00:21.999Z,3.03
2022-11-12T08:03:07.445Z,4.28
2022-11-12T08:05:52.921Z,3.50
2022-11-12T08:08:38.316Z,3.15
2022-11-12T08:11:24.328Z,3.60
2022-11-12T08:14:10.781Z,4.35
2022-11-12T08:16:56.419Z,4.13
2022-11-12T08:19:41.940Z,3.25
2022-11-12T08:22:27.330Z,2.90
2022-11-12T08:25:12.720Z,3.80
2022-11-12T08:27:59.982Z,3.95
2022-11-12T08:30:45.428Z,3.75
2022-11-12T08:33:31.008Z,3.72
2022-11-12T08:36:17.549Z,3.88
2022-11-12T08:39:02.988Z,3.25
2022-11-12T08:41:48.204Z,2.88
2022-11-12T08:44:34.030Z,3.97
2022-11-12T08:47:19.882Z,4.90
2022-11-12T08:50:05.696Z,8.00
2022-11-12T08:52:51.252Z,7.53
2022-11-12T08:55:37.062Z,7.53
2022-11-12T08:58:23.960Z,8.63
2022-11-12T09:01:09.638Z,5.30
2022-11-12T09:03:55.515Z,4.40
2022-11-12T09:06:40.762Z,4.60
2022-11-12T09:09:25.988Z,4.38
2022-11-12T09:12:19.638Z,4.78
2022-11-12T09:15:36.240Z,5.22
2022-11-12T09:18:15.174Z,4.50
2022-11-12T09:21:04.817Z,3.80
2022-11-12T09:23:50.032Z,3.80
2022-11-12T09:26:35.722Z,3.75
2022-11-12T09:29:21.138Z,4.55
2022-11-12T09:32:06.551Z,3.83
2022-11-12T09:34:52.006Z,3.95
2022-11-12T09:37:38.349Z,3.55
2022-11-12T09:40:37.636Z,3.45
2022-11-12T09:43:34.517Z,3.60
2022-11-12T09:46:29.520Z,4.30
2022-11-12T09:49:19.120Z,3.20
2022-11-12T09:52:21.553Z,4.03
2022-11-12T09:55:34.935Z,3.60
2022-11-12T09:58:20.612Z,4.10
2022-11-12T10:01:38.854Z,3.70
2022-11-12T10:04:43.631Z,3.53
2022-11-12T10:07:49.022Z,3.30
2022-11-12T10:10:54.827Z,3.70
2022-11-12T10:14:19.559Z,3.40
2022-11-12T10:17:18.670Z,3.60
2022-11-12T10:20:20.846Z,3.42
2022-11-12T10:23:17.616Z,4.75
2022-11-12T10:26:12.772Z,4.25
2022-11-12T10:29:26.126Z,5.40
2022-11-12T10:32:15.739Z,4.70
2022-11-12T10:35:01.094Z,6.13
2022-11-12T10:38:04.669Z,5.22
2022-11-12T10:40:49.770Z,5.40
2022-11-12T10:43:35.321Z,6.25
2022-11-12T10:46:24.015Z,10.75
2022-11-12T10:49:16.160Z,19.95
2022-11-12T10:52:01.242Z,24.77
2022-11-12T10:54:50.975Z,22.20
2022-11-12T10:57:39.507Z,20.85
2022-11-12T11:00:26.404Z,40.13
2022-11-12T11:03:22.519Z,33.25
2022-11-12T11:06:14.097Z,31.17
2022-11-12T11:09:20.744Z,30.83
2022-11-12T11:12:29.711Z,26.27
2022-11-12T11:15:21.824Z,12.65
2022-11-12T11:18:11.890Z,7.07
2022-11-12T11:21:07.051Z,4.90
2022-11-12T11:24:26.696Z,6.75
2022-11-12T11:27:31.208Z,8.55
2022-11-12T11:30:19.730Z,4.40
2022-11-12T11:33:25.827Z,4.90
2022-11-12T11:36:26.339Z,6.03
2022-11-12T11:39:25.521Z,6.82
2022-11-12T11:42:40.854Z,5.25
2022-11-12T11:45:35.587Z,5.55
2022-11-12T11:48:53.216Z,4.80
2022-11-12T11:52:10.783Z,6.20
2022-11-12T11:54:59.662Z,6.90
2022-11-12T11:57:57.597Z,5.90
2022-11-12T12:00:43.108Z,6.43
2022-11-12T12:04:03.531Z,8.00
2022-11-12T12:07:21.036Z,7.40
2022-11-12T12:10:46.296Z,8.90
2022-11-12T12:13:47.326Z,13.40
2022-11-12T12:17:03.071Z,9.32
2022-11-12T12:20:14.882Z,9.73
2022-11-12T12:23:06.238Z,13.15
2022-11-12T12:25:59.028Z,9.80
2022-11-12T12:28:57.840Z,12.52
2022-11-12T12:31:52.811Z,10.73
2022-11-12T12:34:59.555Z,11.93
2022-11-12T12:37:53.956Z,12.95
2022-11-12T12:40:47.254Z,11.55
2022-11-12T12:43:37.244Z,13.32
2022-11-12T12:46:29.321Z,12.52
2022-11-12T12:49:19.045Z,16.50
2022-11-12T12:52:04.679Z,15.80
2022-11-12T12:54:56.658Z,15.25
2022-11-12T12:57:42.196Z,14.77
2022-11-12T13:00:48.046Z,18.50
2022-11-12T13:03:43.007Z,18.08
2022-11-12T13:06:40.279Z,17.02
2022-11-12T13:09:27.050Z,19.67
2022-11-12T13:12:12.682Z,17.85
2022-11-12T13:15:14.701Z,15.52
2022-11-12T13:21:31.102Z,15.52
2022-11-12T13:24:16.847Z,16.90
2022-11-12T13:27:02.479Z,21.90
2022-11-12T13:29:48.143Z,19.30
2022-11-12T13:32:36.602Z,17.50
2022-11-12T13:35:26.262Z,18.98
2022-11-12T13:38:16.016Z,16.95
2022-11-12T13:41:09.786Z,17.27
2022-11-12T13:43:56.757Z,16.85
2022-11-12T13:46:43.849Z,17.02
2022-11-12T13:49:30.401Z,15.52
2022-11-12T13:52:18.921Z,16.23
2022-11-12T13:55:07.141Z,17.45
2022-11-12T13:57:53.908Z,15.77
2022-11-12T14:00:40.062Z,15.93
2022-11-12T14:03:29.906Z,16.92
2022-11-12T14:06:43.058Z,21.58
2022-11-12T14:09:40.901Z,23.27
2022-11-12T14:12:29.564Z,19.13
2022-11-12T14:20:02.620Z,16.75
2022-11-12T14:22:48.579Z,18.00
2022-11-12T14:25:34.353Z,19.63
2022-11-12T14:28:34.757Z,16.40
2022-11-12T14:31:24.470Z,16.65
2022-11-12T14:34:21.641Z,20.80
2022-11-12T14:37:37.197Z,14.20
2022-11-12T14:40:27.718Z,21.58
2022-11-12T14:43:38.224Z,16.55
2022-11-12T14:46:30.729Z,21.38
2022-11-12T14:49:29.853Z,20.00
2022-11-12T14:52:22.801Z,20.95
2022-11-12T14:55:17.606Z,23.45
2022-11-12T14:58:04.865Z,19.48
2022-11-12T15:00:52.902Z,22.08
2022-11-12T15:03:38.714Z,16.38
2022-11-12T15:06:31.010Z,18.40
2022-11-12T15:09:19.088Z,21.42
2022-11-12T15:12:14.564Z,22.17
2022-11-12T15:15:18.927Z,18.23
2022-11-12T15:18:26.359Z,16.17
2022-11-12T15:21:11.983Z,13.60
2022-11-12T15:24:27.303Z,16.08
2022-11-12T15:27:38.582Z,20.67
2022-11-12T15:30:28.377Z,17.05
2022-11-12T15:33:14.001Z,28.67
2022-11-12T15:36:01.906Z,32.58
2022-11-12T15:38:49.893Z,33.55
2022-11-12T15:41:35.235Z,26.33
2022-11-12T15:44:20.871Z,29.85
2022-11-12T15:47:14.266Z,23.35
2022-11-12T15:49:59.497Z,13.95
2022-11-12T15:52:45.565Z,10.60
2022-11-12T15:55:32.933Z,11.75
2022-11-12T15:58:27.118Z,9.13
2022-11-12T16:01:12.868Z,12.23
2022-11-12T16:03:58.549Z,18.77
2022-11-12T16:06:44.145Z,14.95
2022-11-12T16:09:29.759Z,16.70
2022-11-12T16:12:16.046Z,15.63
2022-11-12T16:15:02.384Z,16.25
2022-11-12T16:17:48.850Z,12.40
2022-11-12T16:20:36.465Z,13.15
2022-11-12T16:23:22.324Z,12.13
2022-11-12T16:26:09.443Z,12.90
2022-11-12T16:28:54.905Z,18.58
2022-11-12T16:31:43.001Z,17.65
2022-11-12T16:34:29.480Z,12.55
2022-11-12T16:37:16.291Z,11.55
2022-11-12T16:40:01.931Z,15.93
2022-11-12T16:42:47.331Z,9.27
2022-11-12T16:45:36.251Z,9.65
2022-11-12T16:48:23.002Z,6.85
2022-11-12T16:51:19.076Z,7.93
2022-11-12T16:54:04.976Z,8.40
2022-11-12T16:56:50.624Z,8.55
2022-11-12T16:59:36.095Z,14.52
2022-11-12T17:02:21.613Z,9.95
2022-11-12T17:05:16.473Z,12.00
2022-11-12T17:08:01.733Z,9.93
2022-11-12T17:10:47.324Z,7.68
2022-11-12T17:13:32.969Z,11.45
2022-11-12T17:16:18.659Z,14.10
2022-11-12T17:19:05.939Z,13.10
2022-11-12T17:21:52.023Z,13.48
2022-11-12T17:24:37.428Z,12.38
2022-11-12T17:27:23.432Z,13.77
2022-11-12T17:30:09.358Z,13.02
2022-11-12T17:32:54.857Z,11.73
2022-11-12T17:35:40.400Z,12.90
2022-11-12T17:38:25.652Z,13.38
2022-11-12T17:41:11.816Z,11.15
2022-11-12T17:43:58.704Z,12.02
2022-11-12T17:46:48.539Z,11.10
2022-11-12T17:49:33.847Z,13.88
2022-11-12T17:52:19.269Z,14.43
2022-11-12T17:55:05.169Z,18.25
2022-11-12T17:57:50.870Z,12.85
2022-11-12T18:00:37.822Z,12.32
2022-11-12T18:03:24.164Z,12.10
2022-11-12T18:06:14.852Z,11.07
2022-11-12T18:09:15.448Z,32.60
2022-11-12T18:12:01.214Z,40.17
2022-11-12T18:14:47.104Z,33.15
2022-11-12T18:17:36.422Z,19.33
2022-11-12T18:20:21.680Z,18.98
2022-11-12T18:23:07.166Z,17.38
2022-11-12T18:25:52.790Z,19.60
2022-11-12T18:28:38.140Z,30.60
2022-11-12T18:31:25.355Z,25.23
2022-11-12T18:34:14.399Z,30.25
2022-11-12T18:37:00.133Z,27.83
2022-11-12T18:39:45.552Z,34.92
2022-11-12T18:42:30.996Z,35.92
2022-11-12T18:45:17.177Z,31.13
2022-11-12T18:48:04.670Z,30.58
2022-11-12T18:50:50.906Z,25.15
2022-11-12T18:53:38.131Z,23.27
2022-11-12T18:56:23.453Z,30.65
2022-11-12T18:59:11.639Z,25.88
2022-11-12T19:01:58.171Z,27.98
2022-11-12T19:04:45.629Z,25.13
2022-11-12T19:07:31.732Z,23.67
2022-11-12T19:10:17.494Z,24.75
2022-11-12T19:13:05.119Z,29.05
2022-11-12T19:15:50.681Z,25.70
2022-11-12T19:18:35.841Z,28.98
2022-11-12T19:21:23.719Z,21.30
2022-11-12T19:24:09.405Z,26.73
2022-11-12T19:26:55.017Z,24.73
2022-11-12T19:29:40.285Z,20.17
2022-11-12T19:32:25.872Z,23.13
2022-11-12T19:35:11.294Z,27.48
2022-11-12T19:37:57.029Z,27.70
2022-11-12T19:40:42.707Z,22.75
2022-11-12T19:43:28.629Z,23.20
2022-11-12T19:46:15.113Z,17.98
2022-11-12T19:49:00.573Z,17.20
2022-11-12T19:51:46.153Z,15.13
2022-11-12T19:54:31.392Z,13.40
2022-11-12T19:57:16.986Z,12.27
2022-11-12T20:00:02.280Z,12.70
2022-11-12T20:02:47.876Z,14.45
2022-11-12T20:05:33.807Z,13.93
2022-11-12T20:08:19.084Z,13.40
2022-11-12T20:11:05.178Z,12.50
2022-11-12T20:13:53.721Z,14.45
2022-11-12T20:16:39.624Z,13.10
2022-11-12T20:19:26.429Z,14.18
2022-11-12T20:22:12.101Z,17.25
2022-11-12T20:24:57.956Z,18.75
2022-11-12T20:27:43.510Z,21.88
2022-11-12T20:30:28.735Z,24.75
2022-11-12T20:33:15.413Z,19.75
2022-11-12T20:36:11.865Z,16.00
2022-11-12T20:38:57.319Z,12.65
2022-11-12T20:41:42.878Z,14.55
2022-11-12T20:44:28.320Z,13.73
2022-11-12T20:47:13.997Z,9.63
2022-11-12T20:49:59.167Z,11.60
2022-11-12T20:52:44.701Z,11.50
2022-11-12T20:55:32.586Z,13.60
2022-11-12T20:58:18.150Z,10.45
2022-11-12T21:01:05.782Z,14.98
2022-11-12T21:03:51.370Z,14.27
2022-11-12T21:06:37.264Z,12.48
2022-11-12T21:09:22.907Z,12.52
2022-11-12T21:12:08.505Z,10.48
2022-11-12T21:14:53.651Z,11.05
2022-11-12T21:17:39.260Z,12.50
2022-11-12T21:20:24.745Z,11.05
2022-11-12T21:23:10.277Z,11.88
2022-11-12T21:25:55.812Z,10.93
2022-11-12T21:28:46.106Z,10.95
2022-11-12T21:31:32.599Z,8.88
2022-11-12T21:34:18.168Z,8.93
2022-11-12T21:37:03.837Z,10.70
2022-11-12T21:39:49.563Z,10.55
2022-11-12T21:42:35.168Z,9.50
2022-11-12T21:45:20.827Z,10.07
2022-11-12T21:48:06.304Z,9.43
2022-11-12T21:50:51.728Z,8.15
2022-11-12T21:53:36.775Z,8.23
2022-11-12T21:56:23.111Z,7.90
2022-11-12T21:59:08.325Z,8.38
2022-11-12T22:01:53.892Z,8.00
2022-11-12T22:04:39.621Z,9.05
2022-11-12T22:07:25.098Z,9.75
2022-11-12T22:10:10.696Z,8.98
2022-11-12T22:13:20.201Z,8.25
2022-11-12T22:16:19.349Z,6.28
2022-11-12T22:19:04.765Z,6.18
2022-11-12T22:21:50.390Z,5.55
2022-11-12T22:24:35.749Z,6.10
2022-11-12T22:27:21.431Z,7.40
2022-11-12T22:30:07.476Z,5.85
2022-11-12T22:32:53.016Z,5.65
2022-11-12T22:35:38.317Z,6.55
2022-11-12T22:38:23.755Z,5.05
2022-11-12T22:41:20.382Z,7.80
2022-11-12T22:44:05.796Z,4.90
2022-11-12T22:46:51.326Z,5.93
2022-11-12T22:49:36.639Z,4.05
2022-11-12T22:52:22.211Z,3.22
2022-11-12T22:55:08.286Z,7.68
2022-11-12T22:57:54.034Z,4.18
2022-11-12T23:00:40.909Z,3.88
2022-11-12T23:03:26.574Z,3.97
2022-11-12T23:06:12.356Z,10.65
2022-11-12T23:08:59.766Z,8.27
2022-11-12T23:11:45.201Z,4.50
2022-11-12T23:14:30.580Z,3.28
2022-11-12T23:17:16.160Z,4.50
2022-11-12T23:20:01.799Z,3.42
2022-11-12T23:22:47.061Z,3.60
2022-11-12T23:25:36.278Z,3.22
2022-11-12T23:28:21.800Z,3.88
2022-11-12T23:31:18.410Z,5.00
2022-11-12T23:34:04.873Z,3.33
2022-11-12T23:36:50.038Z,2.85
2022-11-12T23:39:35.407Z,3.60
2022-11-12T23:42:20.903Z,2.90
2022-11-12T23:45:07.009Z,2.35
2022-11-12T23:47:52.751Z,3.58
2022-11-12T23:50:38.099Z,7.40
2022-11-12T23:53:23.512Z,6.60
2022-11-12T23:56:11.509Z,5.63
2022-11-12T23:58:57.098Z,5.35
